Irondale, Ohio
Current Conditions -  °F | °C
As of 1:06 PM on Thursday 27 Nov 2014 (Local Time) from KPIT Reporting Station
Light Snow Light Snow  
Wind Chill: 26°   Ceiling: 1500
Heat Index: 34°   Visibility: 1mi
Dew Point: 30°   Wind: 10mph
Humidity: 85%   Direction: 280°W
Pressure: 30.06"   Gusts: NA
Location:  40.57°N, 80.73°W
Report Text: KPIT 271806Z 28009KT 1SM R28R/4500VP6000FT -SN BR SCT009 BKN015 OVC036 01/M01 A3006 RMK AO2 P0000 T00111011
Loading
Personal Weather Stations






























Interactive Weather Map New forecast layout! Learn more

10-Day Weather Forecast

Advertisements
Track Severe Weather on mobile